• Join FlightAware (Why Join?)
  • Login
  • US Flag 
03:50PM EDT


 

Airport Tracker/Info


-or-


 

Live Flight TrackerFlight Track Log ✈ N498QS ✈ 30-Apr-2013 ✈ KMMU - KIAD

Flight Track Log - Related Links

Times and Time Zones

All times are in EDT time to prevent confusion due to time zone crossing. See the N498QS flight status page for this flight to view local times or setup timezone preferences in your user account.

Time Position Orientation Groundspeed Altitude Reporting Facility
EDT Latitude Longitude Course Direction KTS MPH feet Rate Location/Type
05:07PM 40.7333 -74.4333 166° South 194 223 2,100  Level New York TRACON
05:08PM 40.6833 -74.4167 166° South 224 258 3,900 1,740 Climbing New York TRACON
05:09PM 40.6167 -74.4000 169° South 276 318 5,600 3,240 Climbing New York TRACON
05:10PM 40.5833 -74.4833 242° Southwest 289 333 10,400 3,420 Climbing New York TRACON
05:12PM 40.6228 -74.7164 283° West 346 398 15,900 1,920 Climbing New York Center
05:13PM 40.6436 -74.8381 283° West 353 406 16,100 1,020 Climbing New York Center
05:14PM 40.6642 -74.9650 282° West 353 406 18,000 1,920 Climbing New York Center
05:15PM 40.6825 -75.0947 281° West 353 406 20,000 960 Climbing New York Center
05:16PM 40.6631 -75.2250 259° West 359 413 20,000  Level New York Center
05:17PM 40.6106 -75.3444 240° Southwest 366 421 20,000  Level New York Center
05:18PM 40.5542 -75.4556 236° Southwest 366 421 20,000  Level New York Center
05:19PM 40.4908 -75.5794 236° Southwest 378 435 20,000  Level New York Center
05:20PM 40.4272 -75.7033 236° Southwest 404 465 20,000  Level New York Center
05:21PM 40.3636 -75.8294 237° Southwest 420 483 20,000  Level New York Center
05:22PM 40.3025 -75.9392 234° Southwest 425 489 20,000 -120 Level New York Center
05:23PM 40.2364 -76.0650 235° Southwest 425 489 19,800 -720 Descending New York Center
05:24PM 40.1681 -76.1981 236° Southwest 420 483 18,600 -960 Descending New York Center
05:25PM 40.1081 -76.3183 237° Southwest 412 474 17,900 -840 Descending New York Center
05:26PM 40.0569 -76.4283 239° Southwest 400 460 17,000 -1,020 Descending New York Center
05:28PM 39.9500 -76.6500 238° Southwest 391 450 15,200 -780 Descending Potomac TRACON
05:29PM 39.9000 -76.7667 241° Southwest 386 444 15,000 -120 Descending Potomac TRACON
05:30PM 39.8500 -76.8833 241° Southwest 384 442 15,000  Level Potomac TRACON
05:31PM 39.7833 -77.0000 233° Southwest 385 443 15,000 -480 Level Potomac TRACON
05:32PM 39.7500 -77.1000 247° West 381 438 14,100 -1,440 Descending Potomac TRACON
05:33PM 39.6833 -77.2167 233° Southwest 355 409 12,200 -1,500 Descending Potomac TRACON
05:34PM 39.6500 -77.2833 237° Southwest 323 372 11,100 -1,500 Descending Potomac TRACON
05:35PM 39.5667 -77.3667 218° Southwest 289 333 9,200 -1,620 Descending Potomac TRACON
05:36PM 39.5167 -77.4167 218° Southwest 280 322 7,900 -1,200 Descending Potomac TRACON
05:37PM 39.4333 -77.4500 197° South 265 305 7,000 -480 Descending Potomac TRACON
05:38PM 39.3833 -77.4500 180° South 236 272 7,000 -480 Level Potomac TRACON
05:39PM 39.3167 -77.4500 180° South 229 264 6,100 -600 Descending Potomac TRACON
05:40PM 39.2500 -77.4500 180° South 177 204 5,800 -600 Descending Potomac TRACON
05:41PM 39.2167 -77.4500 180° South 162 186 5,000 -660 Descending Potomac TRACON
05:42PM 39.1667 -77.4500 180° South 168 193 4,500 -900 Descending Potomac TRACON
05:43PM 39.1167 -77.4500 180° South 169 194 3,200 -1,140 Descending Potomac TRACON
05:44PM 39.0667 -77.4500 180° South 167 192 2,300 -900 Descending Potomac TRACON
05:45PM 39.0333 -77.4667 201° Southwest 160 184 1,500 -900 Descending Potomac TRACON
05:46PM 38.9833 -77.4667 180° South 144 166 600 -840 Descending Potomac TRACON
05:48PM 38.9474 -77.4599 180° South  Level Estimated
05:55PM 38.9474 -77.4599 349° North  Level Estimated
05:56PM 38.9474 -77.4599 349° North  Level Estimated